Time;durP1;ratioP1;P1;durP2;ratioP2;P2;SDS_P1;SDS_P2;PMS_P1;PMS_P2;Temp;Humidity;BMP_temperature;BMP_pressure;BME280_temperature;BME280_humidity;BME280_pressure;Samples;Min_cycle;Max_cycle;Signal;HPM_P1;HPM_P2
2022/05/12 00:01:06;;;;;;;4.18;1.60;;;22.80;46.70;;;;;;5078860;28;20092;-60
2022/05/12 00:03:32;;;;;;;4.65;1.63;;;22.80;46.90;;;;;;5077870;28;20021;-60
2022/05/12 00:05:58;;;;;;;4.07;1.55;;;22.80;46.90;;;;;;5058910;28;20021;-58
2022/05/12 00:08:24;;;;;;;5.15;1.83;;;22.80;46.90;;;;;;5075417;28;20092;-59
2022/05/12 00:10:50;;;;;;;4.20;1.55;;;22.80;47.00;;;;;;5074039;28;20545;-58
2022/05/12 00:13:16;;;;;;;6.82;1.98;;;22.80;47.10;;;;;;5056322;28;20106;-58
2022/05/12 00:15:43;;;;;;;4.20;1.60;;;22.70;47.10;;;;;;5073769;28;20386;-58
2022/05/12 00:18:10;;;;;;;4.13;1.52;;;22.70;47.10;;;;;;5074322;28;20047;-58
2022/05/12 00:20:38;;;;;;;5.70;1.60;;;22.70;47.10;;;;;;5073942;28;20379;-58
2022/05/12 00:23:12;;;;;;;4.55;1.83;;;22.70;47.20;;;;;;5074152;28;20049;-60
2022/05/12 00:25:38;;;;;;;6.60;2.00;;;22.70;47.20;;;;;;5074463;28;20017;-59
2022/05/12 00:28:05;;;;;;;4.20;1.75;;;22.70;47.20;;;;;;5073773;28;20021;-58
2022/05/12 00:30:31;;;;;;;4.13;1.67;;;22.70;47.20;;;;;;5073618;28;20015;-58
2022/05/12 00:32:57;;;;;;;4.70;1.83;;;22.70;47.30;;;;;;5073518;28;20091;-60
2022/05/12 00:35:23;;;;;;;6.07;1.95;;;22.70;47.30;;;;;;5073327;28;20440;-59
2022/05/12 00:37:49;;;;;;;5.93;1.80;;;22.70;47.20;;;;;;5073390;28;20100;-58
2022/05/12 00:40:15;;;;;;;2.88;1.52;;;22.70;47.30;;;;;;5073408;28;20383;-58
2022/05/12 00:42:55;;;;;;;9.95;2.38;;;22.70;47.30;;;;;;5073379;28;20013;-57
2022/05/12 00:45:21;;;;;;;4.72;1.88;;;22.70;47.40;;;;;;5073415;28;20004;-57
2022/05/12 00:47:47;;;;;;;4.40;2.10;;;22.70;47.40;;;;;;5073382;28;20529;-59
2022/05/12 00:50:14;;;;;;;4.55;2.00;;;22.70;47.50;;;;;;5073513;28;20017;-59
2022/05/12 00:52:41;;;;;;;4.53;1.80;;;22.70;47.40;;;;;;5071837;28;20378;-58
2022/05/12 00:55:09;;;;;;;5.32;2.00;;;22.70;47.40;;;;;;5088833;28;20379;-57
2022/05/12 00:57:37;;;;;;;6.28;2.13;;;22.70;47.40;;;;;;5055509;28;20062;-57
2022/05/12 01:00:05;;;;;;;6.53;2.17;;;22.60;47.40;;;;;;5072373;28;20028;-58
2022/05/12 01:02:31;;;;;;;8.20;2.33;;;22.70;47.50;;;;;;5088828;28;20386;-58
2022/05/12 01:04:57;;;;;;;6.78;1.90;;;22.70;47.50;;;;;;5055687;28;20013;-57
2022/05/12 01:07:23;;;;;;;5.72;1.98;;;22.70;47.50;;;;;;5073196;28;20012;-58
2022/05/12 01:09:50;;;;;;;3.65;2.00;;;22.70;47.60;;;;;;5073581;28;20016;-57
2022/05/12 01:12:15;;;;;;;6.55;2.47;;;22.70;47.60;;;;;;5074339;28;20017;-58
2022/05/12 01:14:42;;;;;;;4.75;2.08;;;22.70;47.60;;;;;;5073343;28;20016;-57
2022/05/12 01:17:08;;;;;;;5.28;2.10;;;22.60;47.50;;;;;;5073084;28;20475;-58
2022/05/12 01:19:35;;;;;;;4.68;2.08;;;22.60;47.60;;;;;;5073316;28;20012;-58
2022/05/12 01:22:01;;;;;;;6.38;2.03;;;22.60;47.60;;;;;;5074039;28;20032;-58
2022/05/12 01:24:33;;;;;;;7.13;2.03;;;22.60;47.50;;;;;;5074454;28;20494;-58
2022/05/12 01:27:18;;;;;;;5.43;2.17;;;22.60;47.60;;;;;;5074210;28;20475;-58
2022/05/12 01:29:45;;;;;;;6.70;2.35;;;22.60;47.60;;;;;;5073130;28;20107;-57
2022/05/12 01:32:11;;;;;;;4.60;2.03;;;22.60;47.70;;;;;;5073149;28;20019;-58
2022/05/12 01:34:38;;;;;;;5.05;2.10;;;22.60;47.70;;;;;;5072894;28;20025;-58
2022/05/12 01:37:04;;;;;;;4.43;1.85;;;22.60;47.70;;;;;;5073033;28;20028;-59
2022/05/12 01:39:30;;;;;;;6.55;2.35;;;22.60;47.60;;;;;;5073336;28;20027;-58
2022/05/12 01:41:57;;;;;;;5.75;2.35;;;22.60;47.60;;;;;;5073022;28;20050;-58
2022/05/12 01:44:24;;;;;;;5.55;2.05;;;22.60;47.70;;;;;;5072014;28;20542;-59
2022/05/12 01:46:50;;;;;;;5.45;2.30;;;22.60;47.70;;;;;;5073715;28;20080;-59
2022/05/12 01:49:17;;;;;;;4.60;2.03;;;22.60;48.30;;;;;;5072888;28;20051;-58
2022/05/12 01:51:43;;;;;;;6.13;2.15;;;22.60;47.80;;;;;;5074213;28;20467;-59
2022/05/12 01:54:10;;;;;;;6.95;2.35;;;22.50;47.70;;;;;;5074383;28;20482;-59
2022/05/12 01:56:35;;;;;;;6.53;2.38;;;22.50;47.70;;;;;;5074343;28;20032;-58
2022/05/12 01:59:01;;;;;;;9.88;2.38;;;22.50;47.70;;;;;;5073297;28;20052;-59
2022/05/12 02:01:27;;;;;;;6.28;2.30;;;22.50;47.70;;;;;;5072478;28;20470;-60
2022/05/12 02:03:53;;;;;;;6.13;2.22;;;22.50;47.80;;;;;;5072255;28;20020;-58
2022/05/12 02:06:19;;;;;;;7.28;2.00;;;22.50;47.80;;;;;;5073168;28;20025;-57
2022/05/12 02:08:44;;;;;;;5.50;2.10;;;22.50;47.70;;;;;;5071685;28;20502;-57
2022/05/12 02:11:10;;;;;;;4.57;2.10;;;22.50;47.70;;;;;;5073422;28;20028;-58
2022/05/12 02:13:37;;;;;;;5.50;2.10;;;22.50;47.70;;;;;;5075161;28;20025;-58
2022/05/12 02:16:03;;;;;;;8.70;2.35;;;22.50;47.70;;;;;;5076054;28;20060;-58
2022/05/12 02:18:29;;;;;;;8.18;2.35;;;22.50;47.70;;;;;;5074928;28;20094;-58
2022/05/12 02:20:56;;;;;;;5.07;1.90;;;22.50;47.70;;;;;;5076063;28;20202;-57
2022/05/12 02:23:22;;;;;;;5.57;1.95;;;22.50;47.70;;;;;;5076248;28;20536;-59
2022/05/12 02:25:48;;;;;;;4.50;2.13;;;22.50;47.70;;;;;;5076881;28;20023;-58
2022/05/12 02:28:14;;;;;;;5.55;2.15;;;22.50;47.70;;;;;;5076141;28;20013;-58
2022/05/12 02:30:41;;;;;;;6.22;2.00;;;22.50;47.70;;;;;;5076045;28;20399;-57
2022/05/12 02:33:08;;;;;;;5.65;2.15;;;22.50;47.70;;;;;;5076314;28;20012;-58
2022/05/12 02:35:35;;;;;;;5.95;2.30;;;22.50;47.60;;;;;;5076183;28;20028;-58
2022/05/12 02:38:01;;;;;;;5.45;2.10;;;22.50;47.60;;;;;;5075113;28;20016;-57
2022/05/12 02:40:28;;;;;;;5.63;2.10;;;22.50;47.70;;;;;;5075702;28;20644;-57
2022/05/12 02:42:55;;;;;;;8.02;2.20;;;22.40;47.60;;;;;;5075866;28;20096;-58
2022/05/12 02:45:21;;;;;;;4.28;1.65;;;22.50;47.60;;;;;;5076066;28;20044;-59
2022/05/12 02:47:48;;;;;;;5.38;2.22;;;22.40;47.60;;;;;;5076026;28;20025;-59
2022/05/12 02:50:14;;;;;;;4.20;1.95;;;22.40;47.60;;;;;;5076014;28;20017;-58
2022/05/12 02:52:40;;;;;;;6.13;2.30;;;22.50;47.60;;;;;;5075881;28;20475;-59
2022/05/12 02:55:07;;;;;;;5.05;1.90;;;22.40;47.60;;;;;;5075457;28;20475;-58
2022/05/12 02:57:33;;;;;;;6.85;2.20;;;22.40;47.60;;;;;;5075636;28;20028;-58
2022/05/12 03:00:00;;;;;;;4.13;2.05;;;22.50;47.70;;;;;;5075915;28;20012;-57
2022/05/12 03:02:26;;;;;;;5.13;2.20;;;22.40;47.60;;;;;;5075717;28;20027;-59
2022/05/12 03:04:53;;;;;;;6.00;2.30;;;22.40;47.60;;;;;;5075748;28;20020;-58
2022/05/12 03:07:20;;;;;;;7.50;2.38;;;22.40;47.60;;;;;;5075712;28;20016;-58
2022/05/12 03:09:46;;;;;;;5.28;1.95;;;22.40;48.10;;;;;;5075246;28;20044;-58
2022/05/12 03:12:13;;;;;;;5.32;2.47;;;22.40;47.60;;;;;;5074909;28;20479;-57
2022/05/12 03:14:40;;;;;;;7.90;2.60;;;22.40;47.60;;;;;;5074815;28;20044;-58
2022/05/12 03:17:06;;;;;;;9.02;2.30;;;22.40;47.60;;;;;;5075043;28;20094;-58
2022/05/12 03:19:32;;;;;;;10.98;2.28;;;22.40;47.60;;;;;;5074752;28;20506;-60
2022/05/12 03:21:59;;;;;;;6.10;2.10;;;22.40;47.60;;;;;;5073485;28;20053;-59
2022/05/12 03:24:25;;;;;;;5.00;2.00;;;22.40;47.60;;;;;;5074572;28;20037;-59
2022/05/12 03:26:51;;;;;;;5.95;1.90;;;22.40;47.60;;;;;;5074436;28;20095;-59
2022/05/12 03:29:17;;;;;;;4.30;2.05;;;22.40;47.60;;;;;;5074454;28;20095;-59
2022/05/12 03:31:44;;;;;;;4.47;2.00;;;22.30;47.50;;;;;;5074492;28;20027;-60
2022/05/12 03:34:10;;;;;;;4.85;1.95;;;22.40;47.60;;;;;;5090158;28;20054;-60
2022/05/12 03:36:39;;;;;;;4.15;1.88;;;22.30;47.50;;;;;;5074592;28;20502;-60
2022/05/12 03:39:04;;;;;;;4.40;1.88;;;22.40;47.50;;;;;;5074469;28;20021;-59
2022/05/12 03:41:31;;;;;;;4.95;2.17;;;22.40;47.50;;;;;;5074729;28;20016;-60
2022/05/12 03:46:41;;;;;;;6.57;2.20;;;22.40;47.50;;;;;;5073705;28;20094;-59
2022/05/12 03:49:07;;;;;;;4.35;1.83;;;22.40;47.50;;;;;;5073756;28;20107;-61
2022/05/12 03:51:41;;;;;;;5.18;2.30;;;22.30;47.40;;;;;;5073424;28;20016;-60
2022/05/12 03:54:06;;;;;;;6.60;2.10;;;22.30;47.40;;;;;;5074082;28;20308;-59
2022/05/12 03:56:33;;;;;;;7.60;2.33;;;22.40;47.50;;;;;;5073733;28;20479;-60
2022/05/12 03:58:59;;;;;;;6.00;2.20;;;22.30;47.40;;;;;;5073866;28;20062;-59
2022/05/12 04:01:27;;;;;;;4.25;1.98;;;22.30;47.50;;;;;;5072710;28;20032;-59
2022/05/12 04:03:53;;;;;;;4.95;2.10;;;22.30;47.50;;;;;;5073692;28;20013;-59
2022/05/12 04:06:20;;;;;;;4.43;1.92;;;22.30;47.40;;;;;;5072589;28;20032;-59
2022/05/12 04:08:46;;;;;;;5.45;2.30;;;22.30;47.40;;;;;;5073777;28;20506;-59
2022/05/12 04:11:12;;;;;;;4.68;2.03;;;22.30;47.40;;;;;;5073966;28;20021;-59
2022/05/12 04:13:38;;;;;;;5.68;2.03;;;22.30;47.40;;;;;;5074021;28;20499;-60
2022/05/12 04:16:04;;;;;;;5.00;2.10;;;22.30;47.40;;;;;;5074042;28;20029;-59
2022/05/12 04:18:31;;;;;;;4.63;1.98;;;22.30;47.40;;;;;;5074100;28;20036;-60
2022/05/12 04:20:57;;;;;;;6.97;1.88;;;22.30;47.40;;;;;;5073954;28;20017;-59
2022/05/12 04:23:23;;;;;;;6.68;2.40;;;22.30;47.40;;;;;;5073501;28;20048;-61
2022/05/12 04:25:50;;;;;;;4.45;2.13;;;22.30;47.40;;;;;;5073571;28;20027;-61
2022/05/12 04:28:16;;;;;;;5.90;2.22;;;22.30;47.40;;;;;;5089213;28;20534;-60
2022/05/12 04:30:43;;;;;;;9.00;2.17;;;22.30;47.40;;;;;;5073500;28;20024;-61
2022/05/12 04:35:55;;;;;;;5.10;1.95;;;22.30;47.40;;;;;;5073631;28;20418;-59
2022/05/12 04:38:21;;;;;;;6.78;2.25;;;22.30;47.30;;;;;;5073431;28;20020;-59
2022/05/12 04:40:51;;;;;;;5.55;1.88;;;22.30;47.40;;;;;;5073615;28;20016;-59
2022/05/12 04:43:17;;;;;;;5.10;2.10;;;22.30;47.40;;;;;;5072574;28;20004;-58
2022/05/12 04:45:43;;;;;;;5.40;2.60;;;22.30;47.40;;;;;;5073811;28;20020;-60
2022/05/12 04:48:09;;;;;;;5.95;1.90;;;22.30;47.30;;;;;;5072465;28;20112;-58
2022/05/12 04:50:36;;;;;;;4.28;2.10;;;22.30;47.30;;;;;;5072501;28;20091;-59
2022/05/12 04:53:02;;;;;;;6.93;2.17;;;22.30;47.30;;;;;;5073786;28;20028;-58
2022/05/12 04:55:29;;;;;;;5.05;2.08;;;22.30;47.30;;;;;;5073440;28;20008;-59
2022/05/12 04:57:56;;;;;;;6.28;2.20;;;22.30;47.30;;;;;;5073795;28;20055;-59
2022/05/12 05:00:28;;;;;;;5.60;2.35;;;22.30;47.30;;;;;;5073472;28;20008;-59
2022/05/12 05:02:54;;;;;;;5.70;1.90;;;22.20;47.30;;;;;;5073402;28;20020;-58
2022/05/12 05:05:20;;;;;;;6.32;2.10;;;22.20;47.20;;;;;;5073238;28;20092;-59
2022/05/12 05:07:46;;;;;;;3.92;2.10;;;22.30;47.30;;;;;;5073656;28;20035;-58
2022/05/12 05:10:12;;;;;;;4.40;1.95;;;22.30;47.30;;;;;;5073444;28;20017;-59
2022/05/12 05:12:42;;;;;;;4.35;2.10;;;22.20;47.20;;;;;;5073548;28;20043;-58
2022/05/12 05:15:09;;;;;;;4.90;2.15;;;22.20;47.20;;;;;;5073535;28;20669;-58
2022/05/12 05:17:35;;;;;;;5.20;1.98;;;22.20;47.20;;;;;;5073347;28;20499;-59
2022/05/12 05:20:05;;;;;;;6.05;2.08;;;22.20;47.20;;;;;;5073620;28;20028;-59
2022/05/12 05:22:32;;;;;;;5.55;2.28;;;22.20;47.20;;;;;;5073489;28;20407;-59
2022/05/12 05:24:59;;;;;;;3.42;1.80;;;22.20;47.20;;;;;;5073400;28;20023;-58
2022/05/12 05:27:24;;;;;;;5.28;2.08;;;22.20;47.20;;;;;;5073733;28;20483;-58
2022/05/12 05:29:51;;;;;;;5.47;2.00;;;22.20;47.20;;;;;;5072439;28;20074;-59
2022/05/12 05:32:16;;;;;;;4.38;1.85;;;22.20;47.20;;;;;;5072485;28;20023;-58
2022/05/12 05:34:42;;;;;;;5.15;2.13;;;22.20;47.20;;;;;;5073975;28;20029;-59
2022/05/12 05:37:08;;;;;;;5.38;1.73;;;22.20;47.10;;;;;;5074318;28;20025;-58
2022/05/12 05:39:35;;;;;;;6.18;2.15;;;22.20;47.10;;;;;;5072046;28;20468;-58
2022/05/12 05:42:07;;;;;;;5.57;2.13;;;22.20;47.10;;;;;;5071804;28;20013;-58
2022/05/12 05:44:33;;;;;;;4.15;2.05;;;22.20;47.10;;;;;;5073166;28;20013;-58
2022/05/12 05:47:00;;;;;;;3.92;1.80;;;22.20;47.10;;;;;;5076357;28;20017;-58
2022/05/12 05:49:27;;;;;;;4.63;2.10;;;22.20;47.10;;;;;;5076752;28;20024;-58
2022/05/12 05:54:37;;;;;;;4.30;2.28;;;22.20;47.10;;;;;;5076764;28;20040;-59
2022/05/12 05:57:04;;;;;;;6.18;2.20;;;22.20;47.10;;;;;;5075359;28;20032;-59
2022/05/12 05:59:30;;;;;;;6.53;2.40;;;22.20;47.10;;;;;;5060447;28;20486;-60
2022/05/12 06:01:57;;;;;;;5.40;2.22;;;22.20;47.10;;;;;;5075990;28;20490;-59
2022/05/12 06:04:23;;;;;;;4.95;2.22;;;22.20;47.70;;;;;;5076676;28;20016;-59
2022/05/12 06:06:49;;;;;;;4.80;2.00;;;22.20;47.10;;;;;;5077352;28;20017;-59
2022/05/12 06:09:15;;;;;;;4.60;1.90;;;22.20;47.10;;;;;;5076879;28;20029;-59
2022/05/12 06:11:44;;;;;;;4.32;2.20;;;22.20;47.10;;;;;;5077746;28;20013;-59
2022/05/12 06:14:11;;;;;;;4.82;2.05;;;22.20;47.10;;;;;;5077190;28;20070;-60
2022/05/12 06:16:38;;;;;;;7.82;2.25;;;22.20;47.10;;;;;;5075576;28;20486;-59
2022/05/12 06:19:04;;;;;;;6.05;2.20;;;22.20;47.10;;;;;;5076481;28;20066;-59
2022/05/12 06:21:34;;;;;;;10.57;2.40;;;22.20;47.10;;;;;;5074325;28;20044;-57
2022/05/12 06:23:59;;;;;;;9.48;2.72;;;22.20;47.20;;;;;;5075791;28;20012;-57
2022/05/12 06:26:26;;;;;;;14.77;3.15;;;22.30;48.50;;;;;;5076561;28;20032;-59
2022/05/12 06:28:51;;;;;;;20.33;3.67;;;22.30;50.30;;;;;;5077413;28;20467;-57
2022/05/12 06:31:24;;;;;;;13.95;3.05;;;22.50;51.10;;;;;;5077270;28;20023;-57
2022/05/12 06:33:53;;;;;;;17.80;3.90;;;22.70;51.10;;;;;;5077061;28;20027;-57
2022/05/12 06:36:19;;;;;;;16.88;3.95;;;22.80;51.50;;;;;;5076369;28;20031;-54
2022/05/12 06:38:47;;;;;;;13.20;3.75;;;22.90;51.50;;;;;;5076043;28;20125;-56
2022/05/12 06:41:14;;;;;;;18.95;4.00;;;23.00;51.20;;;;;;5074915;28;20364;-57
2022/05/12 06:43:45;;;;;;;13.50;3.28;;;23.10;51.00;;;;;;5075465;28;20013;-52
2022/05/12 06:46:17;;;;;;;;;;;23.10;51.00;;;;;;5075068;28;20016;-58
2022/05/12 06:48:43;;;;;;;16.58;4.00;;;23.20;51.10;;;;;;5076167;28;19974;-58
2022/05/12 06:51:11;;;;;;;13.90;3.60;;;23.20;50.80;;;;;;5076281;28;20087;-57
2022/05/12 06:53:37;;;;;;;20.67;3.92;;;23.20;50.80;;;;;;5076476;28;20013;-57
2022/05/12 06:56:05;;;;;;;12.15;4.18;;;23.30;50.70;;;;;;5076007;28;20020;-57
2022/05/12 06:58:31;;;;;;;21.23;3.75;;;23.30;50.60;;;;;;5076204;28;20036;-55
2022/05/12 07:00:56;;;;;;;12.52;3.83;;;23.40;50.40;;;;;;5075791;28;20016;-55
2022/05/12 07:03:22;;;;;;;19.23;4.30;;;23.40;50.10;;;;;;5076118;28;20012;-56
2022/05/12 07:05:48;;;;;;;26.77;4.70;;;23.50;50.00;;;;;;5075694;28;20016;-55
2022/05/12 07:08:14;;;;;;;22.83;4.03;;;23.50;50.00;;;;;;5075114;28;20023;-55
2022/05/12 07:10:40;;;;;;;25.23;3.80;;;23.50;50.00;;;;;;5075902;28;20017;-57
2022/05/12 07:13:06;;;;;;;19.45;4.05;;;23.50;50.00;;;;;;5071618;28;20008;-56
2022/05/12 07:15:32;;;;;;;16.50;3.60;;;23.50;49.60;;;;;;5073778;28;20021;-56
2022/05/12 07:17:59;;;;;;;30.73;5.38;;;23.40;49.50;;;;;;5073674;28;20033;-57
2022/05/12 07:28:39;;;;;;;23.30;3.85;;;23.50;49.30;;;;;;5074495;28;20055;-58
2022/05/12 07:31:07;;;;;;;17.13;3.50;;;23.60;49.10;;;;;;5075054;28;20017;-55
2022/05/12 07:33:37;;;;;;;12.40;3.38;;;23.70;49.00;;;;;;5074192;28;20012;-58
2022/05/12 07:36:05;;;;;;;15.80;3.25;;;23.60;48.80;;;;;;5072947;28;20062;-56
2022/05/12 07:38:31;;;;;;;16.60;3.15;;;23.60;48.80;;;;;;5075571;28;20040;-55
2022/05/12 07:40:58;;;;;;;19.00;2.80;;;23.70;48.70;;;;;;5073412;28;20133;-52
2022/05/12 07:43:24;;;;;;;12.32;2.88;;;23.80;48.20;;;;;;5074936;28;20107;-54
2022/05/12 07:45:50;;;;;;;16.23;2.78;;;23.80;48.00;;;;;;5075135;28;20025;-53
2022/05/12 07:48:16;;;;;;;11.85;2.83;;;23.80;47.60;;;;;;5074681;28;20037;-55
2022/05/12 07:50:44;;;;;;;12.15;2.40;;;23.90;47.50;;;;;;5075368;28;20104;-52
2022/05/12 07:53:10;;;;;;;13.10;2.63;;;23.90;47.30;;;;;;5073064;28;20021;-54
2022/05/12 07:55:36;;;;;;;16.88;3.15;;;24.00;47.80;;;;;;5074340;28;20081;-55
2022/05/12 07:58:04;;;;;;;20.20;2.83;;;23.90;47.10;;;;;;5072914;28;20024;-52
2022/05/12 08:00:30;;;;;;;10.98;2.50;;;23.80;47.00;;;;;;5074159;28;20024;-53
2022/05/12 08:02:56;;;;;;;18.15;2.95;;;23.70;47.00;;;;;;5073616;28;20008;-52
2022/05/12 08:05:23;;;;;;;10.40;2.65;;;23.70;46.90;;;;;;5076148;28;20043;-54
2022/05/12 08:07:49;;;;;;;26.02;3.25;;;23.60;46.80;;;;;;5075893;28;20016;-55
2022/05/12 08:10:15;;;;;;;11.25;2.40;;;23.50;46.70;;;;;;5075741;28;20016;-53
2022/05/12 08:12:41;;;;;;;10.02;2.13;;;23.40;46.80;;;;;;5075905;28;20021;-56
2022/05/12 08:15:09;;;;;;;14.38;2.22;;;23.40;46.80;;;;;;5071848;28;20057;-50
2022/05/12 08:17:36;;;;;;;10.30;2.50;;;23.30;46.80;;;;;;5073295;28;20055;-52
2022/05/12 08:20:02;;;;;;;8.63;1.70;;;23.30;46.70;;;;;;5074834;28;20017;-54
2022/05/12 08:22:29;;;;;;;10.40;2.25;;;23.20;46.80;;;;;;5072413;28;20464;-54
2022/05/12 08:24:55;;;;;;;10.10;2.40;;;23.20;46.90;;;;;;5074021;28;20048;-55
2022/05/12 08:27:21;;;;;;;9.65;2.35;;;23.20;46.90;;;;;;5073293;28;20569;-51
2022/05/12 08:29:47;;;;;;;17.63;2.78;;;23.10;46.80;;;;;;5072927;28;20044;-53
2022/05/12 08:32:13;;;;;;;10.00;2.00;;;23.10;46.80;;;;;;5072613;28;20403;-53
2022/05/12 08:34:39;;;;;;;7.50;2.00;;;23.10;46.80;;;;;;5072461;28;20025;-52
2022/05/12 08:37:04;;;;;;;6.82;1.92;;;23.10;46.70;;;;;;5070563;28;20035;-51
2022/05/12 08:39:30;;;;;;;8.70;2.38;;;23.10;46.60;;;;;;5071371;28;20091;-54
2022/05/12 08:42:03;;;;;;;8.10;1.77;;;23.00;46.40;;;;;;5053191;28;20024;-52
2022/05/12 08:44:38;;;;;;;7.60;1.95;;;23.00;46.40;;;;;;5071264;28;20017;-52
2022/05/12 08:47:06;;;;;;;9.95;2.45;;;23.00;46.20;;;;;;5053418;28;20016;-53
2022/05/12 08:49:52;;;;;;;8.25;2.10;;;23.00;46.30;;;;;;5070151;28;20035;-52
2022/05/12 08:52:47;;;;;;;10.10;2.10;;;23.00;46.50;;;;;;5072068;28;20012;-53
2022/05/12 08:55:40;;;;;;;6.93;1.90;;;23.00;46.10;;;;;;5072427;28;20016;-54
2022/05/12 08:58:07;;;;;;;10.52;2.15;;;23.00;46.00;;;;;;5072322;28;20028;-52
2022/05/12 09:00:40;;;;;;;8.52;2.03;;;23.00;45.90;;;;;;5073295;28;20556;-54
2022/05/12 09:03:44;;;;;;;8.82;2.58;;;23.00;45.80;;;;;;5073233;28;20013;-52
2022/05/12 09:06:20;;;;;;;5.00;1.77;;;23.00;45.70;;;;;;5071484;28;20142;-54
2022/05/12 09:08:55;;;;;;;13.63;2.03;;;23.00;45.70;;;;;;5073292;28;20029;-57
2022/05/12 09:11:30;;;;;;;8.27;1.95;;;22.90;45.50;;;;;;5072706;28;20106;-56
2022/05/12 09:13:56;;;;;;;21.85;2.53;;;23.00;45.30;;;;;;5071558;28;20016;-50
2022/05/12 09:16:32;;;;;;;13.65;2.88;;;23.00;45.10;;;;;;5055000;28;20044;-52
2022/05/12 09:18:58;;;;;;;18.48;2.45;;;23.30;44.70;;;;;;5071674;28;20057;-50
2022/05/12 09:21:35;;;;;;;14.40;2.45;;;23.40;44.70;;;;;;5077345;28;20451;-51
2022/05/12 09:24:03;;;;;;;10.77;2.45;;;23.50;44.60;;;;;;5077663;28;20021;-51
2022/05/12 09:26:42;;;;;;;10.50;2.28;;;23.60;44.60;;;;;;5075412;28;20069;-52
2022/05/12 09:29:17;;;;;;;21.70;2.80;;;23.70;44.90;;;;;;5075810;28;20013;-52
2022/05/12 09:31:53;;;;;;;16.48;3.38;;;23.80;44.90;;;;;;5076369;28;20032;-49
2022/05/12 09:34:31;;;;;;;17.95;2.38;;;24.00;45.10;;;;;;5075139;28;20028;-52
2022/05/12 09:37:05;;;;;;;15.63;2.45;;;24.00;45.30;;;;;;5076188;28;20036;-53
2022/05/12 09:39:39;;;;;;;17.80;2.50;;;24.10;45.30;;;;;;5059173;28;20501;-53
2022/05/12 09:42:53;;;;;;;14.45;2.50;;;24.30;45.60;;;;;;5076053;28;20021;-50
2022/05/12 09:45:26;;;;;;;20.17;2.40;;;24.40;45.30;;;;;;5076192;28;20068;-50
2022/05/12 09:48:12;;;;;;;14.05;2.55;;;24.60;45.20;;;;;;5075445;28;20070;-51
2022/05/12 09:50:38;;;;;;;9.32;2.15;;;24.70;45.10;;;;;;5074365;28;20098;-54
2022/05/12 09:53:06;;;;;;;14.88;2.80;;;24.80;45.30;;;;;;5076097;28;20115;-53
2022/05/12 09:55:38;;;;;;;15.10;3.30;;;24.90;45.20;;;;;;5075417;28;20123;-50
2022/05/12 09:58:15;;;;;;;28.17;3.17;;;25.00;45.40;;;;;;5076182;28;20455;-52
2022/05/12 10:01:12;;;;;;;17.27;2.72;;;24.80;46.10;;;;;;5075818;28;20017;-54
2022/05/12 10:09:17;;;;;;;18.25;2.53;;;24.20;45.70;;;;;;5075765;28;20073;-56
2022/05/12 10:11:57;;;;;;;15.45;2.92;;;24.10;45.80;;;;;;5074483;28;20545;-54
2022/05/12 10:14:59;;;;;;;13.13;2.03;;;24.00;45.50;;;;;;5075464;28;20025;-53
2022/05/12 10:17:37;;;;;;;21.08;2.50;;;24.00;45.90;;;;;;5059216;28;20044;-54
2022/05/12 10:20:07;;;;;;;15.18;2.65;;;23.80;45.40;;;;;;5058763;28;20008;-52
2022/05/12 10:22:39;;;;;;;15.88;2.53;;;23.80;45.40;;;;;;5074909;28;20033;-49
2022/05/12 10:25:37;;;;;;;17.15;2.50;;;23.70;44.90;;;;;;5074037;28;20020;-54
2022/05/12 10:28:17;;;;;;;10.55;2.10;;;23.70;45.10;;;;;;5074096;28;20029;-54
2022/05/12 10:30:59;;;;;;;8.20;2.33;;;23.70;44.80;;;;;;5075129;28;20016;-53
2022/05/12 10:33:49;;;;;;;13.00;2.25;;;23.60;44.50;;;;;;5075090;28;20013;-52
2022/05/12 10:36:48;;;;;;;8.80;2.22;;;23.60;44.90;;;;;;5075103;28;20095;-52
2022/05/12 10:39:19;;;;;;;9.30;2.15;;;23.60;44.70;;;;;;5073713;28;20012;-54
2022/05/12 10:42:11;;;;;;;7.13;1.80;;;23.60;44.50;;;;;;5075071;28;20024;-53
2022/05/12 10:44:39;;;;;;;;;;;23.60;44.60;;;;;;5075457;28;20130;-53
2022/05/12 10:47:17;;;;;;;13.63;2.20;;;23.60;44.50;;;;;;5074748;28;19904;-54
2022/05/12 10:50:03;;;;;;;9.25;2.13;;;23.60;43.60;;;;;;5074670;28;20032;-57
2022/05/12 10:52:44;;;;;;;10.75;2.05;;;23.60;43.80;;;;;;5063131;28;20037;-52
2022/05/12 10:55:14;;;;;;;9.38;1.98;;;23.50;43.30;;;;;;5074690;28;20017;-54
2022/05/12 10:57:39;;;;;;;11.50;1.95;;;23.50;43.20;;;;;;5074802;28;20056;-53
2022/05/12 11:00:42;;;;;;;10.52;1.60;;;23.50;42.90;;;;;;5074869;28;20074;-53
2022/05/12 11:03:29;;;;;;;11.57;1.85;;;23.50;42.50;;;;;;5074506;28;20013;-52
2022/05/12 11:06:00;;;;;;;9.43;1.98;;;23.50;43.00;;;;;;5073117;28;20039;-55
2022/05/12 11:08:38;;;;;;;5.07;1.60;;;23.50;43.00;;;;;;5073668;28;20009;-52
2022/05/12 11:11:12;;;;;;;7.35;1.98;;;23.50;42.80;;;;;;5074311;28;20097;-50
2022/05/12 11:13:50;;;;;;;6.78;2.10;;;23.50;42.50;;;;;;5056354;28;20067;-51
2022/05/12 11:16:19;;;;;;;8.27;1.70;;;23.50;42.30;;;;;;5073955;28;20031;-50
2022/05/12 11:19:01;;;;;;;7.13;2.10;;;23.50;42.20;;;;;;5074050;28;20020;-51
2022/05/12 11:21:29;;;;;;;7.45;1.85;;;23.50;42.20;;;;;;5074182;28;20033;-51
2022/05/12 11:23:58;;;;;;;8.45;1.63;;;23.50;41.70;;;;;;5072680;28;20423;-53
2022/05/12 11:26:44;;;;;;;9.25;1.60;;;23.50;42.10;;;;;;5072548;28;20471;-52
2022/05/12 11:29:44;;;;;;;8.55;2.30;;;23.50;41.60;;;;;;5075090;28;20078;-52
2022/05/12 11:32:26;;;;;;;14.13;2.60;;;23.50;41.60;;;;;;5072224;28;20391;-56
2022/05/12 11:35:07;;;;;;;6.28;1.95;;;23.50;41.20;;;;;;5073773;28;20469;-54
2022/05/12 11:37:55;;;;;;;9.23;2.03;;;23.50;41.50;;;;;;5073540;28;20036;-56
2022/05/12 11:40:41;;;;;;;13.80;2.10;;;23.50;41.50;;;;;;5073898;28;20015;-48
2022/05/12 11:46:17;;;;;;;16.55;2.58;;;22.50;40.60;;;;;;5073369;28;20023;-44
2022/05/12 11:48:49;;;;;;;16.25;2.83;;;22.20;41.80;;;;;;5073345;28;20501;-44
2022/05/12 11:51:21;;;;;;;10.07;3.28;;;22.80;41.40;;;;;;5073714;28;20021;-44
2022/05/12 11:54:03;;;;;;;10.77;2.65;;;23.30;41.10;;;;;;5072161;28;20020;-45
2022/05/12 11:56:40;;;;;;;14.48;2.70;;;23.70;41.50;;;;;;5071945;28;20025;-48
2022/05/12 11:59:42;;;;;;;15.70;3.22;;;24.00;41.00;;;;;;5072788;28;20028;-46
2022/05/12 12:02:33;;;;;;;13.65;2.85;;;24.30;40.80;;;;;;5071904;28;20008;-43
2022/05/12 12:05:01;;;;;;;17.48;3.08;;;24.50;40.80;;;;;;5071604;28;20084;-47
2022/05/12 12:07:32;;;;;;;9.50;2.75;;;24.60;41.40;;;;;;5071967;28;20016;-45
2022/05/12 12:10:10;;;;;;;16.75;2.72;;;24.70;41.00;;;;;;5071298;28;20036;-50
2022/05/12 12:12:42;;;;;;;10.85;2.30;;;24.80;41.80;;;;;;5071387;28;20076;-42
2022/05/12 12:15:26;;;;;;;13.23;3.35;;;24.90;42.00;;;;;;5071823;28;20008;-45
2022/05/12 12:17:52;;;;;;;17.58;2.67;;;25.00;42.40;;;;;;5071772;28;20067;-44
2022/05/12 12:20:29;;;;;;;13.75;3.03;;;25.20;42.50;;;;;;5072664;28;20403;-44
2022/05/12 12:22:56;;;;;;;10.77;2.58;;;25.20;42.80;;;;;;5072580;28;20048;-43
2022/05/12 12:25:28;;;;;;;12.07;2.45;;;25.40;43.00;;;;;;5071998;28;20009;-47
2022/05/12 12:27:57;;;;;;;34.65;4.05;;;25.40;43.00;;;;;;5071276;28;20247;-45
2022/05/12 12:30:27;;;;;;;29.85;3.63;;;25.40;43.40;;;;;;5074549;28;20467;-51
2022/05/12 12:33:17;;;;;;;25.58;3.72;;;25.20;42.70;;;;;;5072216;28;20028;-46
2022/05/12 12:36:12;;;;;;;27.25;4.32;;;25.10;42.80;;;;;;5067900;28;20102;-47
2022/05/12 12:39:02;;;;;;;21.25;3.40;;;24.90;42.10;;;;;;5050638;28;20067;-53
2022/05/12 12:41:31;;;;;;;26.63;3.65;;;24.80;41.50;;;;;;5050181;28;20123;-44
2022/05/12 12:44:00;;;;;;;16.13;2.80;;;24.60;42.40;;;;;;5050182;28;20067;-48
2022/05/12 12:46:28;;;;;;;27.08;3.28;;;24.50;42.40;;;;;;5050252;28;20093;-46
2022/05/12 12:49:03;;;;;;;22.55;3.28;;;24.50;42.30;;;;;;5033908;28;20029;-45
2022/05/12 12:51:34;;;;;;;14.15;2.90;;;24.40;41.20;;;;;;5050526;28;20021;-47
2022/05/12 12:56:48;;;;;;;27.98;2.95;;;24.30;41.60;;;;;;5050223;28;20036;-47
2022/05/12 12:59:21;;;;;;;17.60;3.53;;;24.30;40.70;;;;;;5050556;28;20025;-46
2022/05/12 13:01:54;;;;;;;15.48;2.28;;;24.20;41.40;;;;;;5050875;28;20025;-51
2022/05/12 13:04:29;;;;;;;15.80;2.80;;;24.20;41.10;;;;;;5050944;28;20032;-50
2022/05/12 13:06:58;;;;;;;7.35;2.50;;;24.20;40.60;;;;;;5051832;28;20086;-48
2022/05/12 13:09:29;;;;;;;10.10;2.40;;;24.20;41.30;;;;;;5051281;28;20061;-49
2022/05/12 13:12:17;;;;;;;9.70;2.47;;;24.20;40.70;;;;;;5050582;28;20056;-51
2022/05/12 13:14:44;;;;;;;15.88;2.70;;;24.20;40.60;;;;;;5058577;28;20025;-48
2022/05/12 13:17:18;;;;;;;13.60;2.50;;;24.20;40.60;;;;;;5072756;28;20020;-50
2022/05/12 13:19:44;;;;;;;10.48;2.30;;;24.20;40.60;;;;;;5073729;28;20013;-55
2022/05/12 13:22:10;;;;;;;13.98;2.85;;;24.20;40.50;;;;;;5073221;28;20449;-52
2022/05/12 13:24:38;;;;;;;14.32;2.40;;;24.10;40.80;;;;;;5073066;28;20459;-49
2022/05/12 13:27:04;;;;;;;12.90;2.10;;;24.10;40.80;;;;;;5072163;28;20027;-51